createdAt,value
2023-05-05T00:00:33.060Z,100834.03
2023-05-05T00:03:35.955Z,100804.53
2023-05-05T00:06:38.430Z,100828.75
2023-05-05T00:09:41.518Z,100812.87
2023-05-05T00:12:43.943Z,100828.31
2023-05-05T00:15:48.922Z,100829.00
2023-05-05T00:18:51.444Z,100824.03
2023-05-05T00:21:54.036Z,100804.34
2023-05-05T00:24:56.339Z,100831.84
2023-05-05T00:27:59.033Z,100810.78
2023-05-05T00:31:01.808Z,100828.09
2023-05-05T00:34:04.611Z,100801.81
2023-05-05T00:37:07.328Z,100800.63
2023-05-05T00:40:12.724Z,100820.72
2023-05-05T00:43:15.437Z,100812.91
2023-05-05T00:46:26.571Z,100796.03
2023-05-05T00:49:29.748Z,100816.81
2023-05-05T00:52:32.601Z,100821.94
2023-05-05T00:55:35.372Z,100821.22
2023-05-05T00:58:39.523Z,100793.31
2023-05-05T01:01:41.802Z,100801.47
2023-05-05T01:04:44.366Z,100817.53
2023-05-05T01:08:02.991Z,100821.44
2023-05-05T01:11:24.668Z,100812.44
2023-05-05T01:15:01.357Z,100817.28
2023-05-05T01:18:19.593Z,100802.41
2023-05-05T01:21:23.398Z,100804.81
2023-05-05T01:24:54.645Z,100802.03
2023-05-05T01:28:29.474Z,100798.38
2023-05-05T01:31:43.958Z,100803.91
2023-05-05T01:35:02.175Z,100810.97
2023-05-05T01:38:11.931Z,100782.94
2023-05-05T01:41:19.937Z,100775.75
2023-05-05T01:44:22.862Z,100790.19
2023-05-05T01:47:26.278Z,100780.38
2023-05-05T01:50:29.383Z,100759.37
2023-05-05T01:53:33.319Z,100803.59
2023-05-05T01:56:40.259Z,100805.53
2023-05-05T01:59:43.514Z,100790.56
2023-05-05T02:02:49.376Z,100800.34
2023-05-05T02:05:53.968Z,100784.19
2023-05-05T02:08:58.374Z,100801.84
2023-05-05T02:12:02.362Z,100794.69
2023-05-05T02:15:05.406Z,100798.63
2023-05-05T02:18:09.497Z,100773.94
2023-05-05T02:21:11.791Z,100767.94
2023-05-05T02:24:14.328Z,100792.75
2023-05-05T02:27:20.504Z,100778.91
2023-05-05T02:30:25.174Z,100796.22
2023-05-05T02:33:32.976Z,100790.22
2023-05-05T02:36:39.553Z,100789.19
2023-05-05T02:39:58.413Z,100763.44
2023-05-05T02:43:06.533Z,100791.50
2023-05-05T02:46:09.416Z,100768.09
2023-05-05T02:49:12.655Z,100792.19
2023-05-05T02:52:15.458Z,100788.25
2023-05-05T02:55:18.827Z,100784.59
2023-05-05T02:58:29.815Z,100788.97
2023-05-05T03:02:11.655Z,100775.13
2023-05-05T03:05:21.258Z,100791.72
2023-05-05T03:08:42.785Z,100780.88
2023-05-05T03:11:54.765Z,100767.50
2023-05-05T03:14:59.030Z,100790.47
2023-05-05T03:18:04.466Z,100788.75
2023-05-05T03:21:08.922Z,100786.78
2023-05-05T03:24:16.185Z,100785.50
2023-05-05T03:27:20.489Z,100785.75
2023-05-05T03:30:22.885Z,100794.16
2023-05-05T03:33:26.351Z,100791.72
2023-05-05T03:36:30.680Z,100760.53
2023-05-05T03:39:33.610Z,100765.41
2023-05-05T03:42:36.192Z,100761.00
2023-05-05T03:45:39.179Z,100768.72
2023-05-05T03:48:42.197Z,100787.19
2023-05-05T03:51:44.972Z,100767.00
2023-05-05T03:54:47.414Z,100791.25
2023-05-05T03:57:50.081Z,100780.38
2023-05-05T04:00:52.616Z,100795.84
2023-05-05T04:03:56.448Z,100781.88
2023-05-05T04:06:58.894Z,100806.72
2023-05-05T04:10:01.684Z,100801.25
2023-05-05T04:13:04.303Z,100791.09
2023-05-05T04:16:08.819Z,100790.41
2023-05-05T04:19:13.155Z,100818.03
2023-05-05T04:22:16.119Z,100817.13
2023-05-05T04:25:18.701Z,100806.37
2023-05-05T04:28:22.235Z,100802.22
2023-05-05T04:31:24.846Z,100789.44
2023-05-05T04:34:27.557Z,100811.13
2023-05-05T04:37:30.271Z,100788.75
2023-05-05T04:40:33.302Z,100816.78
2023-05-05T04:43:35.877Z,100816.41
2023-05-05T04:46:38.525Z,100818.28
2023-05-05T04:49:41.030Z,100827.50
2023-05-05T04:52:43.748Z,100806.53
2023-05-05T04:55:46.124Z,100807.34
2023-05-05T04:58:50.124Z,100840.41
2023-05-05T05:01:52.661Z,100834.25
2023-05-05T05:04:55.265Z,100833.44
2023-05-05T05:07:57.984Z,100846.75
2023-05-05T05:11:00.802Z,100844.31
2023-05-05T05:14:03.164Z,100824.53
2023-05-05T05:17:08.775Z,100831.13
2023-05-05T05:20:11.650Z,100848.72
2023-05-05T05:23:17.017Z,100823.28
2023-05-05T05:26:19.556Z,100839.59
2023-05-05T05:29:22.742Z,100831.13
2023-05-05T05:32:25.119Z,100834.78
2023-05-05T05:35:28.084Z,100810.00
2023-05-05T05:38:30.415Z,100832.78
2023-05-05T05:41:33.507Z,100822.34
2023-05-05T05:44:35.849Z,100864.22
2023-05-05T05:47:38.608Z,100866.75
2023-05-05T05:50:41.028Z,100866.53
2023-05-05T05:53:44.405Z,100826.22
2023-05-05T05:56:46.913Z,100874.84
2023-05-05T05:59:49.722Z,100864.91
2023-05-05T06:02:52.473Z,100838.81
2023-05-05T06:05:56.805Z,100865.25
2023-05-05T06:08:59.604Z,100871.13
2023-05-05T06:12:03.767Z,100863.19
2023-05-05T06:15:07.108Z,100836.03
2023-05-05T06:18:09.950Z,100849.91
2023-05-05T06:21:13.368Z,100846.97
2023-05-05T06:24:16.381Z,100845.00
2023-05-05T06:27:18.734Z,100867.84
2023-05-05T06:30:21.604Z,100867.00
2023-05-05T06:33:23.891Z,100866.16
2023-05-05T06:36:26.485Z,100863.78
2023-05-05T06:39:28.859Z,100828.28
2023-05-05T06:42:32.229Z,100849.56
2023-05-05T06:45:34.827Z,100854.41
2023-05-05T06:48:37.546Z,100855.06
2023-05-05T06:51:42.158Z,100843.50
2023-05-05T06:54:45.599Z,100850.31
2023-05-05T06:57:47.932Z,100831.41
2023-05-05T07:00:50.609Z,100855.22
2023-05-05T07:03:53.268Z,100855.53
2023-05-05T07:06:56.640Z,100845.47
2023-05-05T07:09:59.000Z,100845.38
2023-05-05T07:13:01.819Z,100835.62
2023-05-05T07:16:04.842Z,100860.06
2023-05-05T07:19:10.090Z,100861.56
2023-05-05T07:22:12.525Z,100854.97
2023-05-05T07:25:15.144Z,100855.44
2023-05-05T07:28:18.032Z,100852.47
2023-05-05T07:31:22.042Z,100838.84
2023-05-05T07:34:24.479Z,100852.75
2023-05-05T07:37:27.132Z,100839.31
2023-05-05T07:40:35.471Z,100843.63
2023-05-05T07:43:39.611Z,100843.09
2023-05-05T07:46:42.116Z,100853.84
2023-05-05T07:49:44.765Z,100835.56
2023-05-05T07:52:51.886Z,100857.37
2023-05-05T07:56:02.000Z,100833.41
2023-05-05T07:59:22.774Z,100854.88
2023-05-05T08:02:25.671Z,100857.59
2023-05-05T08:05:28.333Z,100855.53
2023-05-05T08:08:30.650Z,100849.38
2023-05-05T08:11:33.279Z,100855.28
2023-05-05T08:14:36.333Z,100847.69
2023-05-05T08:17:50.604Z,100852.16
2023-05-05T08:20:53.525Z,100848.53
2023-05-05T08:23:56.208Z,100847.25
2023-05-05T08:27:01.653Z,100830.59
2023-05-05T08:30:04.813Z,100839.28
2023-05-05T08:33:07.227Z,100826.97
2023-05-05T08:36:09.994Z,100850.78
2023-05-05T08:39:14.944Z,100837.69
2023-05-05T08:42:32.816Z,100846.81
2023-05-05T08:45:42.173Z,100851.66
2023-05-05T08:48:46.038Z,100847.63
2023-05-05T08:51:48.889Z,100841.28
2023-05-05T08:54:57.269Z,100839.34
2023-05-05T08:58:06.198Z,100838.88
2023-05-05T09:01:10.305Z,100844.88
2023-05-05T09:04:13.900Z,100834.84
2023-05-05T09:07:16.767Z,100830.78
2023-05-05T09:10:23.165Z,100815.44
2023-05-05T09:13:30.397Z,100807.88
2023-05-05T09:16:35.171Z,100831.38
2023-05-05T09:20:14.227Z,100832.06
2023-05-05T09:23:19.733Z,100824.97
2023-05-05T09:26:26.083Z,100810.44
2023-05-05T09:29:28.975Z,100807.31
2023-05-05T09:32:45.939Z,100810.78
2023-05-05T09:35:56.120Z,100804.75
2023-05-05T09:39:06.257Z,100814.38
2023-05-05T09:42:18.851Z,100807.00
2023-05-05T09:45:27.482Z,100809.69
2023-05-05T09:48:32.395Z,100801.75
2023-05-05T09:51:37.438Z,100797.31
2023-05-05T09:54:44.630Z,100797.72
2023-05-05T09:57:47.641Z,100812.00
2023-05-05T10:00:51.152Z,100790.78
2023-05-05T10:03:55.225Z,100787.09
2023-05-05T10:07:03.467Z,100791.62
2023-05-05T10:10:08.346Z,100768.87
2023-05-05T10:13:12.049Z,100782.41
2023-05-05T10:16:15.457Z,100775.69
2023-05-05T10:19:24.828Z,100776.56
2023-05-05T10:22:32.849Z,100779.97
2023-05-05T10:25:42.167Z,100776.69
2023-05-05T10:28:50.958Z,100780.63
2023-05-05T10:31:54.449Z,100781.56
2023-05-05T10:35:04.030Z,100768.78
2023-05-05T10:38:12.095Z,100767.12
2023-05-05T10:41:16.123Z,100760.94
2023-05-05T10:44:19.439Z,100753.50
2023-05-05T10:47:24.029Z,100727.44
2023-05-05T10:50:41.729Z,100737.53
2023-05-05T10:54:06.141Z,100734.38
2023-05-05T10:57:10.904Z,100661.06
2023-05-05T11:00:39.669Z,100745.06
2023-05-05T11:03:42.411Z,100724.81
2023-05-05T11:07:13.465Z,100720.16
2023-05-05T11:10:20.662Z,100729.25
2023-05-05T11:13:23.827Z,100713.16
2023-05-05T11:16:52.876Z,100706.72
2023-05-05T11:19:55.767Z,100714.28
2023-05-05T11:23:04.195Z,100703.53
2023-05-05T11:26:07.349Z,100711.28
2023-05-05T11:29:09.845Z,100711.97
2023-05-05T11:32:14.366Z,100705.81
2023-05-05T11:35:16.923Z,100708.75
2023-05-05T11:38:24.559Z,100684.87
2023-05-05T11:41:32.701Z,100684.66
2023-05-05T11:44:46.157Z,100693.06
2023-05-05T11:47:48.781Z,100664.63
2023-05-05T11:50:54.862Z,100679.19
2023-05-05T11:53:59.156Z,100677.41
2023-05-05T11:57:05.631Z,100685.06
2023-05-05T12:00:11.953Z,100661.88
2023-05-05T12:03:15.221Z,100669.12
2023-05-05T12:06:28.553Z,100618.00
2023-05-05T12:09:31.767Z,100645.50
2023-05-05T12:12:38.531Z,100578.00
2023-05-05T12:15:43.653Z,100666.03
2023-05-05T12:18:48.177Z,100587.84
2023-05-05T12:21:56.089Z,100655.81
2023-05-05T12:25:01.580Z,100649.12
2023-05-05T12:28:14.571Z,100646.53
2023-05-05T12:31:19.640Z,100640.44
2023-05-05T12:34:27.212Z,100621.91
2023-05-05T12:37:31.538Z,100640.87
2023-05-05T12:40:53.890Z,100586.03
2023-05-05T12:43:57.468Z,100641.25
2023-05-05T12:47:00.545Z,100638.47
2023-05-05T12:50:03.268Z,100639.28
2023-05-05T12:53:07.139Z,100635.84
2023-05-05T12:56:32.187Z,100624.94
2023-05-05T12:59:34.842Z,100629.63
2023-05-05T13:02:37.231Z,100619.44
2023-05-05T13:05:41.187Z,100611.22
2023-05-05T13:08:43.856Z,100607.53
2023-05-05T13:11:46.517Z,100583.97
2023-05-05T13:14:48.925Z,100600.09
2023-05-05T13:17:58.260Z,100591.66
2023-05-05T13:21:00.754Z,100593.63
2023-05-05T13:27:09.220Z,100581.25
2023-05-05T13:30:12.590Z,100590.34
2023-05-05T13:33:14.962Z,100580.88
2023-05-05T13:36:17.608Z,100579.37
2023-05-05T13:39:20.034Z,100573.06
2023-05-05T13:42:22.654Z,100570.28
2023-05-05T13:45:25.140Z,100569.53
2023-05-05T13:48:27.832Z,100544.28
2023-05-05T13:51:30.220Z,100533.59
2023-05-05T13:54:33.277Z,100561.59
2023-05-05T13:57:35.724Z,100553.62
2023-05-05T14:00:38.746Z,100555.16
2023-05-05T14:03:41.469Z,100550.84
2023-05-05T14:06:43.871Z,100534.47
2023-05-05T14:09:46.563Z,100540.81
2023-05-05T14:12:49.019Z,100551.03
2023-05-05T14:15:52.805Z,100514.06
2023-05-05T14:18:55.090Z,100518.75
2023-05-05T14:21:57.678Z,100543.62
2023-05-05T14:25:00.054Z,100539.59
2023-05-05T14:28:03.772Z,100542.94
2023-05-05T14:31:06.564Z,100543.03
2023-05-05T14:34:09.329Z,100523.16
2023-05-05T14:37:11.907Z,100512.78
2023-05-05T14:40:14.618Z,100525.69
2023-05-05T14:43:17.098Z,100474.87
2023-05-05T14:46:19.938Z,100508.03
2023-05-05T14:49:22.379Z,100533.69
2023-05-05T14:52:25.018Z,100505.63
2023-05-05T14:55:27.616Z,100494.37
2023-05-05T14:58:31.188Z,100502.38
2023-05-05T15:01:33.607Z,100522.72
2023-05-05T15:04:36.343Z,100515.13
2023-05-05T15:07:40.054Z,100507.09
2023-05-05T15:10:42.757Z,100513.50
2023-05-05T15:13:45.196Z,100506.34
2023-05-05T15:16:47.868Z,100507.09
2023-05-05T15:19:50.314Z,100489.88
2023-05-05T15:22:52.968Z,100506.22
2023-05-05T15:25:55.376Z,100518.25
2023-05-05T15:28:58.023Z,100511.44
2023-05-05T15:32:00.615Z,100511.84
2023-05-05T15:35:03.376Z,100485.47
2023-05-05T15:38:05.831Z,100510.66
2023-05-05T15:41:08.641Z,100501.03
2023-05-05T15:44:14.220Z,100510.25
2023-05-05T15:47:17.782Z,100502.25
2023-05-05T15:50:20.335Z,100504.66
2023-05-05T15:53:23.152Z,100495.06
2023-05-05T15:56:27.374Z,100491.50
2023-05-05T15:59:30.151Z,100488.69
2023-05-05T16:02:32.673Z,100487.94
2023-05-05T16:05:35.588Z,100487.16
2023-05-05T16:08:38.362Z,100486.31
2023-05-05T16:11:41.021Z,100481.16
2023-05-05T16:14:43.355Z,100482.34
2023-05-05T16:17:46.093Z,100476.72
2023-05-05T16:20:48.562Z,100461.16
2023-05-05T16:23:51.453Z,100481.56
2023-05-05T16:26:53.879Z,100461.22
2023-05-05T16:29:58.509Z,100464.81
2023-05-05T16:33:02.170Z,100474.00
2023-05-05T16:36:05.411Z,100479.22
2023-05-05T16:39:07.893Z,100479.22
2023-05-05T16:42:10.913Z,100451.63
2023-05-05T16:45:13.386Z,100480.44
2023-05-05T16:48:18.617Z,100477.63
2023-05-05T16:51:21.079Z,100485.63
2023-05-05T16:54:23.765Z,100425.25
2023-05-05T16:57:26.178Z,100481.22
2023-05-05T17:00:29.114Z,100474.47
2023-05-05T17:03:32.173Z,100475.25
2023-05-05T17:06:34.992Z,100464.06
2023-05-05T17:09:37.835Z,100483.25
2023-05-05T17:12:42.053Z,100472.47
2023-05-05T17:15:44.560Z,100475.28
2023-05-05T17:18:47.351Z,100472.06
2023-05-05T17:21:54.201Z,100463.25
2023-05-05T17:24:57.112Z,100472.06
2023-05-05T17:28:00.585Z,100476.06
2023-05-05T17:31:03.378Z,100477.25
2023-05-05T17:34:19.328Z,100479.66
2023-05-05T17:37:22.171Z,100476.88
2023-05-05T17:40:24.708Z,100472.06
2023-05-05T17:43:27.518Z,100410.00
2023-05-05T17:46:31.790Z,100474.41
2023-05-05T17:49:34.967Z,100490.00
2023-05-05T17:52:37.398Z,100485.59
2023-05-05T17:55:44.793Z,100468.00
2023-05-05T17:58:49.446Z,100487.97
2023-05-05T18:01:52.188Z,100477.59
2023-05-05T18:04:55.013Z,100478.34
2023-05-05T18:07:57.521Z,100483.94
2023-05-05T18:11:00.413Z,100487.53
2023-05-05T18:14:02.923Z,100487.09
2023-05-05T18:17:05.858Z,100485.50
2023-05-05T18:20:08.996Z,100487.06
2023-05-05T18:23:11.730Z,100495.88
2023-05-05T18:26:16.562Z,100501.44
2023-05-05T18:29:22.506Z,100499.81
2023-05-05T18:32:26.839Z,100505.41
2023-05-05T18:35:32.492Z,100501.81
2023-05-05T18:38:37.544Z,100510.53
2023-05-05T18:41:54.558Z,100504.94
2023-05-05T18:45:46.150Z,100505.31
2023-05-05T18:49:31.138Z,100512.13
2023-05-05T18:52:49.657Z,100455.56
2023-05-05T18:56:01.446Z,100511.63
2023-05-05T18:59:19.633Z,100453.91
2023-05-05T19:02:43.090Z,100517.53
2023-05-05T19:05:47.440Z,100523.50
2023-05-05T19:08:50.241Z,100523.47
2023-05-05T19:11:54.121Z,100535.41
2023-05-05T19:14:59.098Z,100537.75
2023-05-05T19:18:02.709Z,100534.12
2023-05-05T19:21:11.226Z,100511.25
2023-05-05T19:24:15.346Z,100512.03
2023-05-05T19:27:18.027Z,100524.06
2023-05-05T19:30:21.966Z,100528.44
2023-05-05T19:33:24.174Z,100527.19
2023-05-05T19:36:27.757Z,100526.75
2023-05-05T19:39:30.224Z,100526.28
2023-05-05T19:42:32.908Z,100504.97
2023-05-05T19:45:35.589Z,100515.81
2023-05-05T19:48:38.292Z,100528.91
2023-05-05T19:51:42.031Z,100502.44
2023-05-05T19:54:44.716Z,100526.06
2023-05-05T19:57:47.209Z,100518.84
2023-05-05T20:00:49.865Z,100522.03
2023-05-05T20:03:55.797Z,100494.34
2023-05-05T20:06:58.302Z,100528.31
2023-05-05T20:10:01.056Z,100491.44
2023-05-05T20:13:03.560Z,100493.84
2023-05-05T20:16:07.522Z,100520.25
2023-05-05T20:19:10.045Z,100497.75
2023-05-05T20:22:12.763Z,100517.00
2023-05-05T20:25:18.537Z,100514.56
2023-05-05T20:28:23.904Z,100520.09
2023-05-05T20:31:26.349Z,100522.47
2023-05-05T20:34:29.104Z,100510.03
2023-05-05T20:37:33.904Z,100516.84
2023-05-05T20:40:37.105Z,100518.78
2023-05-05T20:43:41.710Z,100520.72
2023-05-05T20:46:44.478Z,100493.84
2023-05-05T20:49:46.923Z,100512.72
2023-05-05T20:52:49.683Z,100513.47
2023-05-05T20:55:52.005Z,100503.28
2023-05-05T20:58:55.045Z,100523.34
2023-05-05T21:01:58.257Z,100515.75
2023-05-05T21:05:05.593Z,100504.50
2023-05-05T21:08:11.101Z,100512.41
2023-05-05T21:11:15.204Z,100479.47
2023-05-05T21:14:17.587Z,100520.34
2023-05-05T21:17:20.489Z,100507.94
2023-05-05T21:20:23.229Z,100509.97
2023-05-05T21:23:26.189Z,100513.09
2023-05-05T21:26:28.727Z,100461.28
2023-05-05T21:29:37.652Z,100501.06
2023-05-05T21:32:40.462Z,100493.34
2023-05-05T21:35:43.526Z,100418.19
2023-05-05T21:38:46.022Z,100503.25
2023-05-05T21:41:48.659Z,100502.44
2023-05-05T21:44:51.022Z,100478.38
2023-05-05T21:47:53.719Z,100472.75
2023-05-05T21:50:56.074Z,100465.16
2023-05-05T21:53:58.892Z,100463.91
2023-05-05T21:57:01.584Z,100479.94
2023-05-05T22:00:05.981Z,100456.66
2023-05-05T22:03:14.625Z,100478.25
2023-05-05T22:06:17.446Z,100478.25
2023-05-05T22:09:19.736Z,100459.72
2023-05-05T22:12:22.509Z,100484.91
2023-05-05T22:15:29.977Z,100468.50
2023-05-05T22:18:36.113Z,100456.41
2023-05-05T22:21:38.453Z,100488.34
2023-05-05T22:24:41.582Z,100468.66
2023-05-05T22:27:43.943Z,100463.31
2023-05-05T22:30:46.748Z,100480.16
2023-05-05T22:33:50.537Z,100488.09
2023-05-05T22:36:53.121Z,100492.41
2023-05-05T22:39:55.531Z,100470.25
2023-05-05T22:42:58.849Z,100483.34
2023-05-05T22:46:01.220Z,100490.06
2023-05-05T22:49:03.889Z,100501.25
2023-05-05T22:52:06.356Z,100479.56
2023-05-05T22:55:09.351Z,100482.66
2023-05-05T22:58:11.944Z,100488.22
2023-05-05T23:01:14.576Z,100504.28
2023-05-05T23:04:17.085Z,100505.34
2023-05-05T23:07:19.881Z,100497.72
2023-05-05T23:10:22.232Z,100479.62
2023-05-05T23:13:25.064Z,100491.28
2023-05-05T23:16:27.490Z,100470.78
2023-05-05T23:19:32.412Z,100498.41
2023-05-05T23:22:34.748Z,100477.66
2023-05-05T23:25:37.420Z,100488.81
2023-05-05T23:28:39.746Z,100459.84
2023-05-05T23:31:42.538Z,100472.62
2023-05-05T23:34:44.990Z,100466.09
2023-05-05T23:37:47.683Z,100475.66
2023-05-05T23:40:49.972Z,100484.34
2023-05-05T23:43:52.643Z,100482.62
2023-05-05T23:46:55.166Z,100462.72
2023-05-05T23:49:58.153Z,100483.56
2023-05-05T23:53:00.615Z,100490.25
2023-05-05T23:56:03.361Z,100470.06
2023-05-05T23:59:06.247Z,100459.47
